Time;durP1;ratioP1;P1;durP2;ratioP2;P2;SDS_P1;SDS_P2;PMS_P1;PMS_P2;Temp;Humidity;BMP_temperature;BMP_pressure;BME280_temperature;BME280_humidity;BME280_pressure;Samples;Min_cycle;Max_cycle;Signal;HPM_P1;HPM_P2
2021/06/10 00:00:37;;;;;;;11.40;10.40;;;;;;;17.48;78.49;95816.25;5030465;28;20041;-64
2021/06/10 00:03:04;;;;;;;10.35;9.65;;;;;;;17.48;78.20;95802.78;5030270;28;20033;-63
2021/06/10 00:05:30;;;;;;;11.10;10.30;;;;;;;17.58;78.00;95806.97;5032894;28;20091;-64
2021/06/10 00:07:55;;;;;;;11.40;10.60;;;;;;;17.52;77.96;95795.63;5030738;28;20495;-65
2021/06/10 00:10:23;;;;;;;11.82;10.88;;;;;;;17.63;77.80;95802.16;5030668;28;20036;-64
2021/06/10 00:12:49;;;;;;;11.98;11.07;;;;;;;17.63;77.97;95804.84;5030407;28;20069;-64
2021/06/10 00:15:18;;;;;;;11.95;10.95;;;;;;;17.62;77.80;95814.06;5030076;28;20025;-64
2021/06/10 00:17:44;;;;;;;11.10;10.20;;;;;;;17.61;77.95;95811.69;5032212;28;20018;-64
2021/06/10 00:20:12;;;;;;;10.88;9.98;;;;;;;17.60;78.09;95816.28;5012733;28;20037;-64
2021/06/10 00:22:37;;;;;;;11.23;10.43;;;;;;;17.62;78.09;95805.97;5027576;28;20049;-64
2021/06/10 00:25:05;;;;;;;11.52;10.63;;;;;;;17.54;78.06;95801.47;5030370;28;20037;-65
2021/06/10 00:27:30;;;;;;;13.07;11.95;;;;;;;17.57;77.83;95808.88;5030378;28;20031;-65
2021/06/10 00:29:55;;;;;;;13.00;11.85;;;;;;;17.48;77.80;95802.00;5031600;28;20124;-64
2021/06/10 00:32:21;;;;;;;12.45;11.55;;;;;;;17.52;77.97;95809.09;5029803;28;20382;-64
2021/06/10 00:34:46;;;;;;;12.35;11.50;;;;;;;17.49;78.20;95809.75;5030313;28;20123;-64
2021/06/10 00:37:12;;;;;;;11.50;10.77;;;;;;;17.54;78.13;95819.50;5030295;28;20089;-64
2021/06/10 00:39:38;;;;;;;13.20;12.10;;;;;;;17.48;78.35;95815.47;5030147;28;20048;-64
2021/06/10 00:42:05;;;;;;;12.05;11.05;;;;;;;17.36;78.30;95792.00;5029129;28;20375;-64
2021/06/10 00:44:31;;;;;;;11.20;10.50;;;;;;;17.40;78.29;95804.47;4993624;28;20021;-64
2021/06/10 00:46:56;;;;;;;14.63;13.23;;;;;;;17.38;78.22;95805.91;5010002;28;20576;-64
2021/06/10 00:49:22;;;;;;;14.13;13.02;;;;;;;17.40;78.38;95814.41;5010242;28;20044;-64
2021/06/10 00:51:47;;;;;;;15.10;14.10;;;;;;;17.31;78.31;95811.03;5010592;28;20531;-64
2021/06/10 00:54:12;;;;;;;14.20;13.00;;;;;;;17.28;78.55;95811.69;5011980;28;20030;-64
2021/06/10 00:56:38;;;;;;;14.13;13.13;;;;;;;17.15;78.84;95798.19;5031961;28;20026;-64
2021/06/10 00:59:04;;;;;;;14.23;13.20;;;;;;;17.09;78.87;95799.50;5029710;28;20041;-64
2021/06/10 01:01:30;;;;;;;15.55;14.10;;;;;;;17.06;78.86;95805.53;5011912;28;20121;-64
2021/06/10 01:03:55;;;;;;;15.75;14.65;;;;;;;17.01;79.07;95813.81;5029256;28;20069;-64
2021/06/10 01:06:32;;;;;;;16.08;14.82;;;;;;;16.86;79.39;95799.06;5025422;28;20038;-64
2021/06/10 01:09:07;;;;;;;16.70;15.48;;;;;;;16.85;79.87;95799.38;5010539;28;20029;-64
2021/06/10 01:12:00;;;;;;;16.42;15.13;;;;;;;16.85;80.06;95812.81;5010335;28;20339;-65
2021/06/10 01:14:38;;;;;;;15.90;14.70;;;;;;;16.79;80.14;95803.41;5029149;28;20384;-64
2021/06/10 01:17:05;;;;;;;16.10;14.48;;;;;;;16.69;80.43;95803.75;5029211;28;20056;-65
2021/06/10 01:19:34;;;;;;;16.75;15.23;;;;;;;16.69;80.90;95817.19;5011602;28;20034;-64
2021/06/10 01:22:02;;;;;;;17.15;15.65;;;;;;;16.61;81.01;95800.78;5029573;28;20049;-64
2021/06/10 01:24:31;;;;;;;15.68;14.43;;;;;;;16.61;80.67;95811.50;5028860;28;20033;-64
2021/06/10 01:27:21;;;;;;;17.13;15.90;;;;;;;16.51;81.01;95795.78;5031248;28;20029;-64
2021/06/10 01:29:52;;;;;;;17.35;16.05;;;;;;;16.48;81.14;95803.69;5029482;28;20045;-64
2021/06/10 01:32:19;;;;;;;18.58;16.95;;;;;;;16.41;80.79;95801.53;5028900;28;20036;-64
2021/06/10 01:34:46;;;;;;;18.63;17.08;;;;;;;16.35;81.26;95779.44;5014924;28;20042;-64
2021/06/10 01:37:13;;;;;;;19.50;18.10;;;;;;;16.37;81.26;95800.59;5009328;28;20112;-64
2021/06/10 01:39:38;;;;;;;21.70;19.75;;;;;;;16.28;81.30;95797.19;5009277;28;20041;-64
2021/06/10 01:42:05;;;;;;;21.38;19.58;;;;;;;16.28;81.74;95797.97;5009738;28;20022;-64
2021/06/10 01:44:31;;;;;;;20.13;18.40;;;;;;;16.26;81.69;95788.66;5029913;28;20031;-64
2021/06/10 01:46:57;;;;;;;25.52;23.02;;;;;;;16.20;81.79;95787.28;5018801;28;20033;-64
2021/06/10 01:49:24;;;;;;;21.85;20.00;;;;;;;16.17;81.81;95786.00;5009334;28;20508;-64
2021/06/10 01:51:52;;;;;;;21.90;19.90;;;;;;;16.06;81.95;95774.84;5009136;28;20535;-64
2021/06/10 01:54:18;;;;;;;24.95;22.63;;;;;;;16.17;81.93;95790.59;5008924;28;20037;-65
2021/06/10 01:56:45;;;;;;;23.75;21.65;;;;;;;16.07;82.23;95787.19;5025851;28;20435;-65
2021/06/10 01:59:12;;;;;;;25.38;23.23;;;;;;;16.10;82.37;95791.88;5009138;28;20073;-64
2021/06/10 02:01:39;;;;;;;25.23;22.92;;;;;;;16.08;82.37;95790.66;5008864;28;20132;-64
2021/06/10 02:04:08;;;;;;;26.38;24.05;;;;;;;16.00;82.25;95784.19;5008312;28;20038;-64
2021/06/10 02:06:34;;;;;;;26.00;23.50;;;;;;;16.02;82.66;95795.41;5008832;28;20395;-64
2021/06/10 02:09:01;;;;;;;22.48;20.55;;;;;;;15.98;83.07;95794.47;5009132;28;20026;-64
2021/06/10 02:11:26;;;;;;;21.52;19.83;;;;;;;15.94;83.14;95793.53;5030381;28;20120;-63
2021/06/10 02:13:52;;;;;;;24.48;22.10;;;;;;;15.97;83.27;95789.41;5028279;28;20120;-65
2021/06/10 02:16:19;;;;;;;23.85;21.77;;;;;;;15.92;83.39;95792.28;5027497;28;20030;-64
2021/06/10 02:18:47;;;;;;;22.95;21.00;;;;;;;15.92;83.06;95790.41;5027238;28;20045;-64
2021/06/10 02:21:13;;;;;;;24.73;22.52;;;;;;;15.88;83.50;95789.47;5027985;28;20360;-64
2021/06/10 02:23:40;;;;;;;25.33;23.10;;;;;;;15.79;83.35;95778.75;5030222;28;20024;-65
2021/06/10 02:26:06;;;;;;;28.23;25.35;;;;;;;15.67;83.84;95761.78;5028438;28;20042;-64
2021/06/10 02:28:33;;;;;;;24.05;21.83;;;;;;;15.83;83.84;95789.66;5028422;28;20036;-64
2021/06/10 02:30:59;;;;;;;33.40;27.77;;;;;;;15.80;84.23;95792.97;5027627;28;20076;-65
2021/06/10 02:33:25;;;;;;;25.77;23.30;;;;;;;15.80;83.91;95796.41;5006659;28;20107;-64
2021/06/10 02:35:51;;;;;;;27.75;24.80;;;;;;;15.74;84.13;95786.97;5010667;28;20647;-64
2021/06/10 02:38:19;;;;;;;23.55;21.25;;;;;;;15.80;83.99;95798.31;5008553;28;20591;-64
2021/06/10 02:40:49;;;;;;;26.15;23.77;;;;;;;15.77;83.99;95799.75;5008552;28;20681;-64
2021/06/10 02:43:14;;;;;;;25.77;23.25;;;;;;;15.77;84.37;95804.34;5018161;28;20034;-64
2021/06/10 02:45:42;;;;;;;27.50;24.80;;;;;;;15.72;83.85;95796.47;5017866;28;20046;-64
2021/06/10 02:48:09;;;;;;;25.55;23.20;;;;;;;15.73;83.96;95806.88;5013427;28;20021;-64
2021/06/10 02:50:38;;;;;;;24.15;21.90;;;;;;;15.65;84.22;95788.91;5034233;28;20029;-64
2021/06/10 02:53:06;;;;;;;24.35;22.08;;;;;;;15.67;84.15;95802.78;5014850;28;20042;-64
2021/06/10 02:55:35;;;;;;;23.55;21.65;;;;;;;15.67;84.19;95805.47;5012418;28;20096;-64
2021/06/10 02:58:01;;;;;;;24.52;22.40;;;;;;;15.66;84.24;95814.63;5011048;28;20034;-64
2021/06/10 03:00:30;;;;;;;24.08;21.75;;;;;;;15.64;84.26;95806.09;5012115;28;20037;-64
2021/06/10 03:02:55;;;;;;;24.10;22.13;;;;;;;15.65;84.43;95807.66;5013635;28;20160;-64
2021/06/10 03:05:25;;;;;;;23.45;21.48;;;;;;;15.64;84.19;95805.31;5011088;28;20121;-64
2021/06/10 03:07:52;;;;;;;24.15;21.98;;;;;;;15.60;84.54;95803.22;5012401;28;20034;-64
2021/06/10 03:10:21;;;;;;;24.30;22.13;;;;;;;15.63;84.25;95811.75;5012210;28;20530;-64
2021/06/10 03:12:47;;;;;;;24.52;22.10;;;;;;;15.55;84.50;95794.56;5010465;28;20052;-64
2021/06/10 03:15:13;;;;;;;20.75;18.95;;;;;;;15.66;84.92;95811.13;5010424;28;20025;-64
2021/06/10 03:17:40;;;;;;;20.60;18.95;;;;;;;15.72;84.92;95813.34;5013695;28;20033;-63
2021/06/10 03:20:08;;;;;;;20.65;18.80;;;;;;;15.80;84.92;95809.06;5010954;28;20041;-64
2021/06/10 03:22:33;;;;;;;19.15;17.55;;;;;;;16.00;84.59;95823.66;5011512;28;20042;-64
2021/06/10 03:25:01;;;;;;;17.80;16.42;;;;;;;16.11;84.36;95816.81;5012065;28;20557;-64
2021/06/10 03:27:29;;;;;;;16.42;15.23;;;;;;;16.25;84.00;95817.41;5011955;28;20403;-64
2021/06/10 03:29:54;;;;;;;16.50;15.07;;;;;;;16.31;83.26;95807.28;5013380;28;20101;-65
2021/06/10 03:32:20;;;;;;;16.17;14.98;;;;;;;16.41;82.79;95806.13;5011295;28;20121;-64
2021/06/10 03:34:47;;;;;;;14.35;13.35;;;;;;;16.62;82.17;95815.78;5011905;28;20053;-64
2021/06/10 03:37:13;;;;;;;15.00;13.77;;;;;;;16.72;81.40;95808.47;5012018;28;20041;-64
2021/06/10 03:39:39;;;;;;;14.90;13.68;;;;;;;16.87;81.03;95811.38;5011615;28;20495;-64
2021/06/10 03:42:06;;;;;;;15.38;14.30;;;;;;;16.87;80.12;95787.19;5011549;28;20030;-64
2021/06/10 03:44:33;;;;;;;12.10;11.10;;;;;;;17.17;79.47;95823.97;5013213;28;20026;-64
2021/06/10 03:46:59;;;;;;;12.82;11.55;;;;;;;17.18;78.66;95812.09;5026888;28;20045;-64
2021/06/10 03:49:24;;;;;;;13.10;12.13;;;;;;;17.28;78.48;95830.50;5031235;28;20030;-64
2021/06/10 03:51:51;;;;;;;10.98;10.15;;;;;;;17.24;77.83;95816.94;5031036;28;20052;-64
2021/06/10 03:54:18;;;;;;;11.43;10.52;;;;;;;17.32;77.44;95820.66;5030632;28;20021;-64
2021/06/10 03:56:44;;;;;;;11.48;10.65;;;;;;;17.38;77.37;95811.28;5032706;28;20108;-64
2021/06/10 03:59:09;;;;;;;10.27;9.57;;;;;;;17.39;76.96;95812.84;5031203;28;20040;-64
2021/06/10 04:01:35;;;;;;;11.05;10.05;;;;;;;17.41;76.32;95814.09;5009640;28;20041;-64
2021/06/10 04:04:00;;;;;;;9.63;8.90;;;;;;;17.54;76.09;95817.59;5010697;28;20591;-64
2021/06/10 04:06:31;;;;;;;9.30;8.65;;;;;;;17.59;75.74;95808.53;5014815;28;20048;-64
2021/06/10 04:08:56;;;;;;;9.68;8.80;;;;;;;17.81;75.22;95812.75;5033324;28;21323;-64
2021/06/10 04:11:21;;;;;;;8.98;8.27;;;;;;;17.93;74.70;95810.13;5030721;28;20132;-64
2021/06/10 04:13:47;;;;;;;9.20;8.52;;;;;;;17.98;74.29;95801.81;5030273;28;20037;-64
2021/06/10 04:16:12;;;;;;;8.05;7.35;;;;;;;18.23;73.71;95813.41;5030283;28;20061;-64
2021/06/10 04:18:38;;;;;;;7.78;7.28;;;;;;;18.35;72.68;95804.53;5012807;28;20128;-64
2021/06/10 04:21:03;;;;;;;8.00;7.40;;;;;;;18.57;72.10;95806.75;5012957;28;20069;-64
2021/06/10 04:23:28;;;;;;;7.25;6.72;;;;;;;18.89;71.55;95815.06;5014409;28;20104;-65
2021/06/10 04:25:54;;;;;;;7.03;6.50;;;;;;;19.14;70.46;95813.88;5030500;28;20044;-64
2021/06/10 04:28:20;;;;;;;7.82;6.85;;;;;;;19.41;68.93;95811.53;5030553;28;20057;-64
2021/06/10 04:30:45;;;;;;;7.40;6.80;;;;;;;19.80;68.00;95817.19;5023817;28;20114;-65
2021/06/10 04:33:10;;;;;;;6.90;6.40;;;;;;;20.11;66.66;95817.22;4992085;28;20029;-65
2021/06/10 04:35:36;;;;;;;6.90;6.50;;;;;;;20.06;65.68;95792.38;5011163;28;20045;-66
2021/06/10 04:38:01;;;;;;;6.35;5.85;;;;;;;20.17;65.50;95820.47;5010290;28;20045;-65
2021/06/10 04:40:26;;;;;;;7.07;6.30;;;;;;;20.16;65.35;95818.88;5010519;28;20046;-65
2021/06/10 04:42:52;;;;;;;7.72;6.80;;;;;;;19.99;65.22;95793.00;5012303;28;20391;-65
2021/06/10 04:45:17;;;;;;;6.53;6.07;;;;;;;20.09;64.83;95802.50;5025267;28;20034;-66
2021/06/10 04:47:43;;;;;;;5.93;5.55;;;;;;;20.31;64.81;95820.78;5012064;28;20088;-65
2021/06/10 04:50:09;;;;;;;6.82;6.32;;;;;;;20.16;64.24;95800.75;5027548;28;20042;-65
2021/06/10 04:52:34;;;;;;;6.80;6.30;;;;;;;20.40;63.57;95834.13;5016735;28;20041;-65
2021/06/10 04:55:00;;;;;;;6.45;5.82;;;;;;;20.37;63.95;95810.50;5018449;28;20479;-62
2021/06/10 04:57:25;;;;;;;6.30;5.85;;;;;;;20.51;63.73;95819.75;5029837;28;20041;-65
2021/06/10 04:59:51;;;;;;;6.57;6.07;;;;;;;20.88;63.53;95829.44;5031831;28;20021;-68
2021/06/10 05:02:16;;;;;;;6.72;6.22;;;;;;;21.03;62.08;95818.59;5013085;28;20049;-65
2021/06/10 05:04:42;;;;;;;6.57;6.07;;;;;;;21.22;61.36;95825.94;5029757;28;20037;-65
2021/06/10 05:07:09;;;;;;;7.03;6.50;;;;;;;21.34;60.93;95837.78;5029655;28;20041;-65
2021/06/10 05:09:35;;;;;;;7.30;6.70;;;;;;;21.59;60.28;95836.34;5029499;28;20038;-68
2021/06/10 05:12:00;;;;;;;11.13;7.28;;;;;;;21.73;59.31;95787.88;5030187;28;20036;-69
2021/06/10 05:14:25;;;;;;;6.47;6.07;;;;;;;22.26;58.09;95822.47;5031436;28;20025;-68
2021/06/10 05:16:50;;;;;;;8.13;6.18;;;;;;;22.63;57.35;95830.84;5014254;28;20085;-68
2021/06/10 05:19:17;;;;;;;7.10;6.60;;;;;;;22.88;56.70;95819.53;5019891;28;20125;-68
2021/06/10 05:21:42;;;;;;;5.88;5.53;;;;;;;23.22;55.58;95821.19;5029290;28;20482;-67
2021/06/10 05:24:13;;;;;;;7.38;6.65;;;;;;;23.40;54.38;95817.94;5028811;28;20026;-68
2021/06/10 05:26:38;;;;;;;6.07;5.68;;;;;;;23.76;52.97;95819.16;5029318;28;20049;-68
2021/06/10 05:29:04;;;;;;;6.57;6.18;;;;;;;23.91;51.63;95818.13;5028920;28;20439;-67
2021/06/10 05:31:30;;;;;;;6.63;6.03;;;;;;;24.03;51.91;95827.94;5028810;28;20049;-68
2021/06/10 05:33:56;;;;;;;6.68;6.07;;;;;;;24.15;51.46;95830.38;5028524;28;20053;-68
2021/06/10 05:36:21;;;;;;;6.45;6.05;;;;;;;23.98;51.51;95815.47;5028852;28;20360;-68
2021/06/10 05:38:46;;;;;;;8.25;7.40;;;;;;;23.91;51.26;95803.78;5030975;28;20466;-68
2021/06/10 05:41:12;;;;;;;7.45;6.90;;;;;;;23.93;51.17;95799.50;5029092;28;20049;-69
2021/06/10 05:43:37;;;;;;;7.97;7.18;;;;;;;23.95;50.21;95818.16;5010582;28;20052;-69
2021/06/10 05:46:03;;;;;;;6.72;6.22;;;;;;;24.16;51.16;95834.69;5028416;28;20498;-69
2021/06/10 05:48:28;;;;;;;6.43;6.03;;;;;;;24.23;50.87;95823.88;5028452;28;20037;-69
2021/06/10 05:50:54;;;;;;;7.25;6.47;;;;;;;24.31;50.26;95821.97;5030565;28;20395;-69
2021/06/10 05:53:19;;;;;;;7.65;6.95;;;;;;;24.40;50.67;95819.75;5028421;28;20038;-69
2021/06/10 05:55:46;;;;;;;6.97;6.38;;;;;;;24.59;50.06;95838.56;5028780;28;20454;-69
2021/06/10 05:58:12;;;;;;;6.20;5.70;;;;;;;24.76;49.53;95839.06;5028848;28;20030;-68
2021/06/10 06:00:38;;;;;;;7.13;6.63;;;;;;;24.58;48.85;95825.34;5028131;28;20041;-68
2021/06/10 06:03:04;;;;;;;6.60;6.00;;;;;;;24.29;49.73;95844.09;5027846;28;20132;-68
2021/06/10 06:05:31;;;;;;;8.02;7.25;;;;;;;24.04;49.65;95829.50;5030373;28;20021;-68
2021/06/10 06:07:56;;;;;;;7.63;6.85;;;;;;;24.06;49.71;95816.34;5028578;28;20502;-69
2021/06/10 06:10:22;;;;;;;7.38;6.78;;;;;;;24.39;49.46;95845.38;5028510;28;20104;-68
2021/06/10 06:12:51;;;;;;;7.18;6.57;;;;;;;23.56;50.36;95804.94;5010180;28;20033;-68
2021/06/10 06:15:17;;;;;;;6.72;6.25;;;;;;;22.62;53.80;95845.50;5027070;28;20391;-70
2021/06/10 06:17:44;;;;;;;9.95;6.10;;;;;;;23.19;52.62;95838.25;5029429;28;20021;-69
2021/06/10 06:20:10;;;;;;;7.07;6.47;;;;;;;23.14;52.36;95843.22;5027442;28;20479;-69
2021/06/10 06:22:40;;;;;;;6.57;6.07;;;;;;;23.48;52.34;95844.78;5027359;28;20045;-67
2021/06/10 06:25:05;;;;;;;8.00;6.20;;;;;;;23.75;51.72;95840.09;5028219;28;20426;-69
2021/06/10 06:27:31;;;;;;;7.47;6.93;;;;;;;24.00;51.45;95843.06;5010278;28;20093;-64
2021/06/10 06:29:56;;;;;;;6.63;6.13;;;;;;;23.94;51.51;95832.91;5029895;28;20494;-66
2021/06/10 06:32:21;;;;;;;7.43;6.88;;;;;;;23.68;52.28;95841.94;5027305;28;20029;-63
2021/06/10 06:34:47;;;;;;;8.68;7.55;;;;;;;22.75;53.88;95846.88;5013470;28;20052;-64
2021/06/10 06:37:13;;;;;;;7.43;6.82;;;;;;;22.94;53.33;95840.63;5008171;28;20042;-64
2021/06/10 06:39:38;;;;;;;8.27;7.65;;;;;;;21.25;58.01;95854.22;5008403;28;20096;-64
2021/06/10 06:42:04;;;;;;;7.35;6.85;;;;;;;21.63;57.15;95853.47;5008030;28;20497;-65
2021/06/10 06:44:30;;;;;;;9.07;8.35;;;;;;;20.71;59.09;95850.34;5009838;28;20122;-66
2021/06/10 06:46:55;;;;;;;8.63;7.82;;;;;;;20.35;61.25;95854.09;5007375;28;20129;-65
2021/06/10 06:49:20;;;;;;;7.72;7.22;;;;;;;20.18;62.63;95855.22;5008291;28;20046;-64
2021/06/10 06:51:45;;;;;;;8.35;7.68;;;;;;;20.30;62.26;95851.66;5014676;28;20050;-63
2021/06/10 06:54:11;;;;;;;8.13;7.53;;;;;;;20.86;60.79;95850.66;5008274;28;20057;-63
2021/06/10 06:56:36;;;;;;;10.57;8.93;;;;;;;20.64;61.16;95855.59;5010136;28;20410;-66
2021/06/10 06:59:02;;;;;;;9.70;9.00;;;;;;;21.01;59.12;95850.63;5024972;28;20041;-66
2021/06/10 07:01:27;;;;;;;9.98;9.18;;;;;;;20.03;62.70;95833.59;5015560;28;20038;-66
2021/06/10 07:03:52;;;;;;;10.13;9.13;;;;;;;19.96;63.56;95855.78;5002335;28;20133;-65
2021/06/10 07:06:18;;;;;;;9.38;8.75;;;;;;;20.89;61.19;95855.38;5007668;28;20033;-70
2021/06/10 07:08:43;;;;;;;9.18;8.48;;;;;;;21.28;59.80;95845.38;5010140;28;20106;-69
2021/06/10 07:11:09;;;;;;;10.45;9.75;;;;;;;21.71;58.88;95860.59;5008052;28;20073;-72
2021/06/10 07:13:34;;;;;;;9.80;8.88;;;;;;;21.35;58.52;95866.44;5020816;28;20037;-70
2021/06/10 07:16:00;;;;;;;10.02;9.32;;;;;;;21.59;58.73;95855.31;5019084;28;20045;-70
2021/06/10 07:18:25;;;;;;;7.38;6.78;;;;;;;22.02;57.57;95856.91;5007957;28;20041;-70
2021/06/10 07:20:51;;;;;;;9.15;8.35;;;;;;;22.47;56.45;95849.16;5010107;28;20038;-72
2021/06/10 07:23:16;;;;;;;8.48;7.88;;;;;;;21.52;58.91;95845.13;5007616;28;20049;-69
2021/06/10 07:25:42;;;;;;;9.00;8.40;;;;;;;21.96;57.43;95852.16;5007994;28;20040;-70
2021/06/10 07:28:07;;;;;;;8.23;7.45;;;;;;;22.47;56.98;95851.84;5008224;28;20072;-69
2021/06/10 07:30:35;;;;;;;8.88;8.27;;;;;;;22.29;56.93;95848.88;5007944;28;20044;-70
2021/06/10 07:33:00;;;;;;;8.88;8.07;;;;;;;22.68;56.24;95846.78;5007635;28;20053;-68
2021/06/10 07:35:25;;;;;;;9.40;8.70;;;;;;;22.80;55.15;95849.28;5013415;28;20057;-70
2021/06/10 07:37:53;;;;;;;9.57;8.98;;;;;;;22.95;54.54;95854.94;5026798;28;20038;-71
2021/06/10 07:40:23;;;;;;;10.40;9.70;;;;;;;22.65;55.33;95861.06;5031267;28;20133;-71
2021/06/10 07:42:48;;;;;;;10.15;9.45;;;;;;;23.16;54.38;95857.97;5030729;28;20033;-70
2021/06/10 07:45:14;;;;;;;9.80;9.10;;;;;;;23.59;53.52;95853.06;5013363;28;20027;-70
2021/06/10 07:47:40;;;;;;;9.13;8.43;;;;;;;23.18;54.55;95860.28;5017369;28;20395;-71
2021/06/10 07:50:07;;;;;;;8.10;7.50;;;;;;;23.90;53.58;95846.44;5019400;28;20121;-71
2021/06/10 07:52:32;;;;;;;8.93;8.32;;;;;;;24.45;51.61;95841.16;5010673;28;20046;-71
2021/06/10 07:54:58;;;;;;;9.32;8.65;;;;;;;24.73;50.64;95840.59;5011170;28;20037;-70
2021/06/10 07:57:23;;;;;;;8.88;8.18;;;;;;;24.88;49.95;95839.53;5011010;28;20045;-71
2021/06/10 07:59:48;;;;;;;9.63;8.88;;;;;;;24.93;49.54;95843.03;5013121;28;20339;-71
2021/06/10 08:02:14;;;;;;;9.90;9.07;;;;;;;24.76;48.90;95855.38;5010283;28;20615;-70
2021/06/10 08:04:40;;;;;;;8.50;7.90;;;;;;;24.79;49.56;95841.03;5024420;28;20037;-71
2021/06/10 08:07:05;;;;;;;8.25;7.65;;;;;;;24.90;49.73;95853.53;5030726;28;20091;-70
2021/06/10 08:09:32;;;;;;;9.20;8.38;;;;;;;24.97;49.30;95846.56;5030769;28;20329;-70
2021/06/10 08:11:59;;;;;;;7.72;7.18;;;;;;;25.10;48.41;95847.88;5032604;28;20036;-70
2021/06/10 08:14:25;;;;;;;8.50;7.80;;;;;;;25.03;48.36;95845.84;5030764;28;20034;-70
2021/06/10 08:16:50;;;;;;;8.20;7.50;;;;;;;25.08;48.19;95836.56;5004744;28;20049;-70
2021/06/10 08:19:15;;;;;;;8.52;7.93;;;;;;;24.98;47.97;95826.34;5010760;28;20045;-70
2021/06/10 08:21:41;;;;;;;7.88;7.28;;;;;;;23.86;51.01;95823.91;5010756;28;20083;-70
2021/06/10 08:24:07;;;;;;;8.88;8.02;;;;;;;23.23;52.53;95835.56;5011105;28;20060;-71
2021/06/10 08:26:32;;;;;;;9.48;8.82;;;;;;;22.10;55.06;95843.47;5032239;28;20474;-70
2021/06/10 08:28:58;;;;;;;8.43;7.72;;;;;;;22.52;54.47;95843.41;5014335;28;20045;-70
2021/06/10 08:31:24;;;;;;;8.70;8.02;;;;;;;23.23;53.05;95852.63;5000757;28;20038;-73
2021/06/10 08:33:51;;;;;;;8.50;7.95;;;;;;;23.34;52.04;95831.84;5005434;28;20615;-64
2021/06/10 08:36:18;;;;;;;9.20;8.50;;;;;;;23.81;51.57;95843.25;5010528;28;20026;-73
2021/06/10 08:38:44;;;;;;;8.23;7.53;;;;;;;24.26;50.77;95849.50;5012459;28;20029;-68
2021/06/10 08:41:11;;;;;;;7.82;7.18;;;;;;;24.63;50.54;95833.94;5011148;28;20046;-66
2021/06/10 08:43:36;;;;;;;8.50;7.90;;;;;;;25.13;48.48;95838.91;5010157;28;20038;-67
2021/06/10 08:46:07;;;;;;;9.13;8.23;;;;;;;23.43;49.63;95855.19;5008809;28;20050;-65
2021/06/10 08:48:35;;;;;;;8.48;7.97;;;;;;;22.91;51.69;95837.84;5005204;28;20099;-66
2021/06/10 08:51:01;;;;;;;8.70;8.00;;;;;;;23.47;50.28;95850.59;5010032;28;20722;-67
2021/06/10 08:53:27;;;;;;;7.80;7.20;;;;;;;22.95;51.69;95846.81;5012329;28;20030;-64
2021/06/10 08:55:56;;;;;;;8.57;7.97;;;;;;;23.71;50.62;95850.13;5011849;28;20510;-65
2021/06/10 08:58:22;;;;;;;8.40;7.70;;;;;;;24.15;48.95;95835.81;5010085;28;20049;-66
2021/06/10 09:00:47;;;;;;;7.82;7.22;;;;;;;24.61;49.60;95840.88;5010063;28;20038;-65
2021/06/10 09:03:21;;;;;;;8.15;7.65;;;;;;;23.24;51.86;95848.00;5011076;28;20022;-66
2021/06/10 09:06:00;;;;;;;8.40;7.90;;;;;;;22.42;53.88;95838.59;5031653;28;20064;-65
2021/06/10 09:08:26;;;;;;;7.88;7.28;;;;;;;22.58;52.69;95821.06;5012823;28;20073;-69
2021/06/10 09:11:06;;;;;;;8.07;7.35;;;;;;;23.14;51.46;95816.84;5014137;28;20085;-68
2021/06/10 09:13:45;;;;;;;8.32;7.45;;;;;;;23.12;52.08;95834.63;5009727;28;20038;-70
2021/06/10 09:16:36;;;;;;;7.93;7.32;;;;;;;23.03;52.16;95841.13;5009291;28;20049;-67
2021/06/10 09:19:13;;;;;;;7.72;7.18;;;;;;;23.28;50.94;95833.28;5008496;28;20583;-67
2021/06/10 09:21:46;;;;;;;7.20;6.50;;;;;;;23.78;50.35;95820.31;5009631;28;20042;-67
2021/06/10 09:24:21;;;;;;;7.70;7.20;;;;;;;24.38;48.89;95836.44;5008939;28;20022;-67
2021/06/10 09:27:00;;;;;;;9.68;8.88;;;;;;;24.27;47.59;95788.56;5011168;28;20112;-67
2021/06/10 09:29:52;;;;;;;7.40;6.80;;;;;;;26.17;45.63;95840.09;5011899;28;20033;-67
2021/06/10 09:32:22;;;;;;;8.20;7.50;;;;;;;24.82;45.68;95840.25;5009216;28;20038;-68
2021/06/10 09:34:54;;;;;;;7.22;6.68;;;;;;;25.32;45.99;95840.56;5009003;28;20084;-68
2021/06/10 09:37:24;;;;;;;7.38;6.78;;;;;;;24.06;49.23;95849.72;5009313;28;20034;-67
2021/06/10 09:39:53;;;;;;;7.15;6.75;;;;;;;23.80;49.47;95847.09;5009365;28;20129;-67
2021/06/10 09:42:27;;;;;;;6.43;6.03;;;;;;;24.13;47.96;95840.84;5007475;28;20084;-66
2021/06/10 09:45:04;;;;;;;6.75;6.30;;;;;;;23.94;48.26;95830.19;5011001;28;20057;-67
2021/06/10 09:47:52;;;;;;;5.57;5.18;;;;;;;23.34;48.68;95839.97;5009105;28;20030;-69
2021/06/10 09:50:42;;;;;;;6.45;6.05;;;;;;;22.99;49.06;95842.22;4991622;28;20502;-68
2021/06/10 09:53:34;;;;;;;6.88;6.30;;;;;;;23.56;48.53;95841.00;5008381;28;20038;-66
2021/06/10 09:56:08;;;;;;;6.45;5.95;;;;;;;23.31;48.61;95840.72;5005243;28;20500;-67
2021/06/10 09:58:41;;;;;;;8.77;5.95;;;;;;;23.99;46.55;95838.00;5008928;28;20046;-67
2021/06/10 10:01:19;;;;;;;6.07;5.57;;;;;;;24.50;45.96;95824.50;5008880;28;20054;-67
2021/06/10 10:03:47;;;;;;;6.95;6.55;;;;;;;25.40;44.30;95829.34;5007823;28;20081;-67
2021/06/10 10:06:27;;;;;;;5.93;5.53;;;;;;;26.73;42.68;95830.38;5008800;28;20029;-67
2021/06/10 10:09:00;;;;;;;6.28;5.78;;;;;;;25.17;44.08;95822.59;5010847;28;20065;-66
2021/06/10 10:11:28;;;;;;;6.75;6.18;;;;;;;24.17;45.86;95811.78;5007402;28;20045;-66
2021/06/10 10:13:57;;;;;;;6.38;5.90;;;;;;;23.74;46.26;95833.09;5023683;28;20033;-68
2021/06/10 10:16:28;;;;;;;6.22;5.80;;;;;;;23.85;47.29;95834.00;5016875;28;20034;-67
2021/06/10 10:18:54;;;;;;;5.80;5.30;;;;;;;23.40;47.16;95834.22;5008510;28;20475;-68
2021/06/10 10:21:28;;;;;;;5.10;4.80;;;;;;;23.02;46.76;95819.78;5008467;28;20106;-67
2021/06/10 10:24:05;;;;;;;5.90;5.40;;;;;;;23.41;46.99;95819.50;5008670;28;20021;-67
2021/06/10 10:26:32;;;;;;;5.30;5.00;;;;;;;23.10;46.23;95802.44;5023798;28;20041;-66
2021/06/10 10:28:59;;;;;;;5.68;5.28;;;;;;;23.71;46.51;95816.75;5008448;28;20423;-67
2021/06/10 10:31:26;;;;;;;5.78;5.05;;;;;;;23.24;45.28;95812.72;5008313;28;20129;-67
2021/06/10 10:33:52;;;;;;;5.57;5.18;;;;;;;22.92;46.54;95812.28;5005888;28;20085;-67
2021/06/10 10:36:28;;;;;;;5.45;5.15;;;;;;;23.91;45.18;95811.94;5006942;28;20049;-67
2021/06/10 10:39:13;;;;;;;5.68;5.15;;;;;;;24.91;44.04;95805.34;5010487;28;20029;-67
2021/06/10 10:41:53;;;;;;;5.72;5.30;;;;;;;25.93;42.90;95812.38;5027954;28;20466;-67
2021/06/10 10:44:27;;;;;;;5.32;4.93;;;;;;;26.71;42.30;95802.69;5008905;28;20042;-67
2021/06/10 10:47:09;;;;;;;5.70;5.30;;;;;;;26.69;40.57;95788.66;5005610;28;20572;-67
2021/06/10 10:49:48;;;;;;;6.07;5.68;;;;;;;24.75;42.77;95793.97;5027793;28;20087;-67
2021/06/10 10:52:13;;;;;;;6.65;6.15;;;;;;;24.30;44.41;95810.31;5027239;28;20546;-67
2021/06/10 10:54:39;;;;;;;5.90;5.50;;;;;;;24.09;45.26;95800.03;5027799;28;20049;-67
2021/06/10 10:57:07;;;;;;;5.95;5.50;;;;;;;24.65;42.60;95776.41;5027840;28;20025;-67
2021/06/10 10:59:40;;;;;;;5.03;4.72;;;;;;;25.01;42.56;95793.72;5030046;28;20021;-67
2021/06/10 11:02:07;;;;;;;5.38;5.03;;;;;;;24.26;42.97;95771.47;5026370;28;20046;-67
2021/06/10 11:04:56;;;;;;;5.15;4.85;;;;;;;25.03;41.56;95785.97;5027556;28;20037;-67
2021/06/10 11:07:40;;;;;;;5.35;5.00;;;;;;;25.35;42.23;95783.41;5029635;28;20072;-67
2021/06/10 11:10:15;;;;;;;5.28;4.78;;;;;;;24.77;43.75;95780.75;5031671;28;20049;-67
2021/06/10 11:12:40;;;;;;;5.03;4.55;;;;;;;24.88;43.59;95779.69;5031376;28;20352;-67
2021/06/10 11:15:08;;;;;;;5.47;5.18;;;;;;;24.80;42.39;95771.84;5031549;28;20112;-67
2021/06/10 11:17:44;;;;;;;5.72;5.25;;;;;;;25.11;43.43;95781.38;5032886;28;20026;-67
2021/06/10 11:20:13;;;;;;;5.90;5.50;;;;;;;25.68;42.58;95776.09;5013481;28;20041;-67
2021/06/10 11:22:40;;;;;;;5.90;5.50;;;;;;;25.02;43.35;95789.06;5030853;28;20045;-67
2021/06/10 11:25:07;;;;;;;7.47;6.28;;;;;;;23.62;46.54;95784.44;5031074;28;20091;-68
2021/06/10 11:27:35;;;;;;;5.47;5.18;;;;;;;24.12;45.61;95787.66;5031275;28;20507;-67
2021/06/10 11:30:28;;;;;;;5.88;5.57;;;;;;;23.98;44.25;95782.09;5031647;28;20542;-67